Time;durP1;ratioP1;P1;durP2;ratioP2;P2;SDS_P1;SDS_P2;PMS_P1;PMS_P2;Temp;Humidity;BMP_temperature;BMP_pressure;BME280_temperature;BME280_humidity;BME280_pressure;Samples;Min_cycle;Max_cycle;Signal;HPM_P1;HPM_P2
2022/12/21 00:02:04;;;;;;;33.97;22.77;;;5.90;1.00;;;;;;6219157;28;20245;-53
2022/12/21 00:05:12;;;;;;;32.63;22.60;;;5.80;1.00;;;;;;6230932;28;20449;-53
2022/12/21 00:08:15;;;;;;;29.07;20.87;;;6.00;1.00;;;;;;6231688;28;20247;-53
2022/12/21 00:11:18;;;;;;;35.57;21.90;;;6.00;1.00;;;;;;6214129;28;20744;-52
2022/12/21 00:14:21;;;;;;;33.13;21.23;;;6.00;1.00;;;;;;6216075;28;20268;-51
2022/12/21 00:17:24;;;;;;;33.77;22.23;;;5.70;1.00;;;;;;6210382;28;20707;-53
2022/12/21 00:20:29;;;;;;;34.87;22.77;;;5.80;1.00;;;;;;6225268;28;20830;-54
2022/12/21 00:23:33;;;;;;;35.40;22.63;;;5.70;1.00;;;;;;6231007;28;20752;-53
2022/12/21 00:26:38;;;;;;;34.70;24.37;;;5.90;1.00;;;;;;6208511;28;20232;-52
2022/12/21 00:29:41;;;;;;;35.67;23.93;;;5.70;1.00;;;;;;6209157;28;20250;-52
2022/12/21 00:32:44;;;;;;;34.13;23.00;;;5.60;1.00;;;;;;6231804;28;20246;-52
2022/12/21 00:35:50;;;;;;;37.93;23.57;;;5.60;1.00;;;;;;6230023;28;20602;-52
2022/12/21 00:38:54;;;;;;;34.23;22.40;;;5.80;1.00;;;;;;6229032;28;20243;-52
2022/12/21 00:41:56;;;;;;;37.00;22.50;;;5.70;1.00;;;;;;6209570;28;20239;-52
2022/12/21 00:44:59;;;;;;;38.07;23.83;;;5.90;1.00;;;;;;6213032;28;20620;-52
2022/12/21 00:48:03;;;;;;;34.53;22.83;;;5.60;1.00;;;;;;6231163;28;20501;-53
2022/12/21 00:51:09;;;;;;;33.87;22.37;;;5.70;1.00;;;;;;6232343;28;20230;-50
2022/12/21 00:54:12;;;;;;;36.53;23.23;;;5.50;1.00;;;;;;6210954;28;20266;-52
2022/12/21 00:57:15;;;;;;;34.97;23.07;;;5.60;1.00;;;;;;6207412;28;20648;-53
2022/12/21 01:00:19;;;;;;;35.57;23.73;;;5.80;1.00;;;;;;6209575;28;20278;-52
2022/12/21 01:03:22;;;;;;;36.80;23.47;;;5.60;1.00;;;;;;6219637;28;20242;-53
2022/12/21 01:06:30;;;;;;;38.07;24.40;;;5.30;1.00;;;;;;6230721;28;20398;-53
2022/12/21 01:09:33;;;;;;;38.30;22.50;;;5.60;1.00;;;;;;6220870;28;20631;-54
2022/12/21 01:12:36;;;;;;;36.73;23.33;;;5.40;1.00;;;;;;6231788;28;20242;-53
2022/12/21 01:15:41;;;;;;;36.80;24.20;;;5.70;1.00;;;;;;6231750;28;20243;-53
2022/12/21 01:18:44;;;;;;;37.50;22.77;;;5.50;1.00;;;;;;6219748;28;20374;-53
2022/12/21 01:21:49;;;;;;;38.30;23.60;;;5.50;1.00;;;;;;6229302;28;20394;-53
2022/12/21 01:24:52;;;;;;;39.67;25.77;;;5.40;1.00;;;;;;6223988;28;20716;-57
2022/12/21 01:27:55;;;;;;;38.30;24.27;;;5.50;1.00;;;;;;6209807;28;20243;-53
2022/12/21 01:31:02;;;;;;;39.00;24.30;;;5.70;1.00;;;;;;6232603;28;20621;-53
2022/12/21 01:34:05;;;;;;;35.90;23.83;;;5.60;1.00;;;;;;6236693;28;20713;-53
2022/12/21 01:37:09;;;;;;;39.10;24.60;;;5.60;1.00;;;;;;6222562;28;20927;-53
2022/12/21 01:40:13;;;;;;;40.67;24.47;;;5.50;1.00;;;;;;6235954;28;20731;-52
2022/12/21 01:43:19;;;;;;;37.97;24.30;;;5.60;1.00;;;;;;6234581;28;20242;-53
2022/12/21 01:46:27;;;;;;;39.13;23.87;;;5.60;1.00;;;;;;6211181;28;20236;-52
2022/12/21 01:49:32;;;;;;;36.00;23.93;;;5.60;1.00;;;;;;6211731;28;20249;-53
2022/12/21 01:52:37;;;;;;;37.77;24.10;;;5.60;1.00;;;;;;6221857;28;20246;-53
2022/12/21 01:55:41;;;;;;;41.43;25.20;;;5.60;1.00;;;;;;6220919;28;20240;-52
2022/12/21 01:58:44;;;;;;;41.10;24.23;;;5.40;1.00;;;;;;6224491;28;20239;-52
2022/12/21 02:01:47;;;;;;;34.90;23.93;;;5.40;1.00;;;;;;6239113;28;20238;-53
2022/12/21 02:04:52;;;;;;;38.40;23.80;;;5.50;1.00;;;;;;6254487;28;20250;-52
2022/12/21 02:07:59;;;;;;;38.50;25.07;;;5.60;1.00;;;;;;6263360;28;20230;-53
2022/12/21 02:11:03;;;;;;;37.20;24.30;;;5.50;1.00;;;;;;6241177;28;20226;-52
2022/12/21 02:14:12;;;;;;;40.73;25.50;;;5.50;1.00;;;;;;6236255;28;20242;-52
2022/12/21 02:17:29;;;;;;;34.70;24.57;;;5.50;1.00;;;;;;6234230;28;20243;-52
2022/12/21 02:20:58;;;;;;;43.63;26.17;;;5.60;1.00;;;;;;6258101;28;20603;-53
2022/12/21 02:24:51;;;;;;;39.27;25.33;;;5.40;1.00;;;;;;6238687;28;20806;-52
2022/12/21 02:28:32;;;;;;;44.27;24.57;;;5.60;1.00;;;;;;6246772;28;20389;-52
2022/12/21 02:31:45;;;;;;;40.60;24.50;;;5.50;1.00;;;;;;6259319;28;20484;-52
2022/12/21 02:35:00;;;;;;;43.53;25.37;;;5.60;1.00;;;;;;6257847;28;20336;-53
2022/12/21 02:38:17;;;;;;;37.57;24.83;;;5.30;1.00;;;;;;6247206;28;20861;-52
2022/12/21 02:41:31;;;;;;;43.07;25.83;;;5.40;1.00;;;;;;6252718;28;20238;-52
2022/12/21 02:44:43;;;;;;;40.03;24.70;;;5.30;1.00;;;;;;6246803;28;20242;-52
2022/12/21 02:47:52;;;;;;;40.63;24.67;;;5.40;1.00;;;;;;6234049;28;20254;-55
2022/12/21 02:51:01;;;;;;;43.37;26.53;;;5.40;1.00;;;;;;6234559;28;20242;-52
2022/12/21 02:54:04;;;;;;;38.50;24.67;;;5.30;1.00;;;;;;6238205;28;20237;-52
2022/12/21 02:57:08;;;;;;;44.27;27.67;;;5.50;1.00;;;;;;6258978;28;20238;-53
2022/12/21 03:00:14;;;;;;;43.40;26.33;;;5.20;1.00;;;;;;6258967;28;20233;-53
2022/12/21 03:03:50;;;;;;;40.03;26.20;;;5.20;1.00;;;;;;6248151;28;20238;-53
2022/12/21 03:07:13;;;;;;;38.93;25.83;;;5.20;1.00;;;;;;6233318;28;20223;-53
2022/12/21 03:10:25;;;;;;;50.23;25.93;;;5.20;1.00;;;;;;6220850;28;20242;-52
2022/12/21 03:13:36;;;;;;;41.73;26.50;;;5.40;1.00;;;;;;6233413;28;20247;-53
2022/12/21 03:16:47;;;;;;;43.17;27.53;;;5.20;1.00;;;;;;6233380;28;20234;-52
2022/12/21 03:19:58;;;;;;;46.67;26.57;;;5.10;1.00;;;;;;6219683;28;20234;-52
2022/12/21 03:23:09;;;;;;;42.63;26.53;;;5.20;1.00;;;;;;6209162;28;20254;-52
2022/12/21 03:26:19;;;;;;;45.77;25.53;;;5.30;1.00;;;;;;6209617;28;20604;-52
2022/12/21 03:29:27;;;;;;;44.27;26.63;;;5.30;1.00;;;;;;6208602;28;20250;-55
2022/12/21 03:32:36;;;;;;;43.40;27.27;;;5.30;1.00;;;;;;6223465;28;20234;-53
2022/12/21 03:35:45;;;;;;;40.13;26.50;;;5.30;1.00;;;;;;6233265;28;20688;-52
2022/12/21 03:38:52;;;;;;;47.97;27.30;;;5.40;1.00;;;;;;6225615;28;20250;-53
2022/12/21 03:41:59;;;;;;;42.60;26.07;;;5.30;1.00;;;;;;6234007;28;20299;-52
2022/12/21 03:45:08;;;;;;;44.43;27.23;;;5.30;1.00;;;;;;6234101;28;20265;-53
2022/12/21 03:48:16;;;;;;;43.10;26.23;;;5.10;1.00;;;;;;6223248;28;20246;-52
2022/12/21 03:51:27;;;;;;;44.00;27.17;;;5.20;1.00;;;;;;6209253;28;20568;-52
2022/12/21 03:54:37;;;;;;;47.53;28.27;;;5.30;1.00;;;;;;6220173;28;20227;-52
2022/12/21 03:57:41;;;;;;;44.03;26.50;;;5.20;1.00;;;;;;6230779;28;20242;-51
2022/12/21 04:00:50;;;;;;;40.27;25.57;;;5.40;1.00;;;;;;6226840;28;20242;-53
2022/12/21 04:04:00;;;;;;;37.73;24.60;;;5.20;1.00;;;;;;6231212;28;20238;-53
2022/12/21 04:07:07;;;;;;;42.50;25.60;;;5.40;1.00;;;;;;6232004;28;20246;-52
2022/12/21 04:10:13;;;;;;;44.60;27.37;;;5.30;1.00;;;;;;6223990;28;20243;-52
2022/12/21 04:13:16;;;;;;;44.40;26.03;;;5.30;1.00;;;;;;6231518;28;20616;-53
2022/12/21 04:16:19;;;;;;;45.17;26.90;;;5.30;1.00;;;;;;6231955;28;20742;-52
2022/12/21 04:29:25;;;;;;;44.73;26.37;;;5.40;1.00;;;;;;6207921;28;20623;-53
2022/12/21 04:32:28;;;;;;;49.67;28.10;;;5.20;1.00;;;;;;6204022;28;20260;-53
2022/12/21 04:35:31;;;;;;;43.37;25.73;;;5.50;1.00;;;;;;6228631;28;20324;-52
2022/12/21 04:38:36;;;;;;;44.10;27.50;;;5.50;1.00;;;;;;6227119;28;20496;-53
2022/12/21 04:41:39;;;;;;;43.67;25.70;;;5.50;1.00;;;;;;6219272;28;20322;-52
2022/12/21 04:44:42;;;;;;;43.00;27.67;;;5.30;1.00;;;;;;6226335;28;20712;-52
2022/12/21 04:47:45;;;;;;;44.30;27.60;;;5.50;1.00;;;;;;6235864;28;20237;-52
2022/12/21 04:50:48;;;;;;;41.63;26.23;;;5.30;1.00;;;;;;6226371;28;20750;-53
2022/12/21 04:53:53;;;;;;;44.33;27.40;;;5.40;1.00;;;;;;6236807;28;20230;-53
2022/12/21 04:56:56;;;;;;;46.30;27.57;;;5.40;1.00;;;;;;6223036;28;20238;-55
2022/12/21 04:59:59;;;;;;;49.33;27.33;;;5.50;1.00;;;;;;6235380;28;20238;-55
2022/12/21 05:03:02;;;;;;;46.20;28.23;;;5.60;1.00;;;;;;6232051;28;20477;-59
2022/12/21 05:06:06;;;;;;;54.60;28.10;;;5.40;1.00;;;;;;6236655;28;20841;-53
2022/12/21 05:09:13;;;;;;;45.33;26.87;;;5.40;1.00;;;;;;6242721;28;20238;-54
2022/12/21 05:12:16;;;;;;;47.23;28.57;;;5.50;1.00;;;;;;6243628;28;20230;-53
2022/12/21 05:15:19;;;;;;;45.73;28.03;;;5.70;1.00;;;;;;6242628;28;20246;-52
2022/12/21 05:18:22;;;;;;;47.77;29.17;;;5.40;1.00;;;;;;6233425;28;20242;-53
2022/12/21 05:21:25;;;;;;;48.20;27.67;;;5.70;1.00;;;;;;6232857;28;20245;-52
2022/12/21 05:24:29;;;;;;;50.20;29.60;;;5.70;1.00;;;;;;6258325;28;20949;-52
2022/12/21 05:27:32;;;;;;;44.40;27.47;;;5.50;1.00;;;;;;6259530;28;20234;-53
2022/12/21 05:30:35;;;;;;;47.83;28.33;;;5.40;1.00;;;;;;6259844;28;20270;-53
2022/12/21 05:33:39;;;;;;;48.93;28.77;;;5.60;1.00;;;;;;6254631;28;20627;-52
2022/12/21 05:36:42;;;;;;;46.97;28.57;;;5.70;1.00;;;;;;6253943;28;20244;-54
2022/12/21 05:39:46;;;;;;;48.80;28.53;;;5.70;1.00;;;;;;6257770;28;20244;-52
2022/12/21 05:42:49;;;;;;;45.87;27.90;;;5.80;1.00;;;;;;6251915;28;20242;-53
2022/12/21 05:45:53;;;;;;;47.10;29.37;;;5.70;1.00;;;;;;6257704;28;20241;-52
2022/12/21 05:48:56;;;;;;;49.83;29.23;;;5.70;1.00;;;;;;6256874;28;20657;-53
2022/12/21 05:51:59;;;;;;;46.70;28.83;;;5.70;1.00;;;;;;6257733;28;20518;-53
2022/12/21 05:55:04;;;;;;;48.10;29.43;;;5.80;1.00;;;;;;6257327;28;20225;-53
2022/12/21 05:58:07;;;;;;;45.90;29.10;;;5.70;1.00;;;;;;6259492;28;20344;-52
2022/12/21 06:01:12;;;;;;;46.97;29.87;;;5.90;1.00;;;;;;6256645;28;20301;-52
2022/12/21 06:04:15;;;;;;;46.60;28.63;;;5.80;1.00;;;;;;6256070;28;20234;-52
2022/12/21 06:07:18;;;;;;;51.43;29.50;;;5.50;1.00;;;;;;6231416;28;20361;-52
2022/12/21 06:10:22;;;;;;;54.10;29.00;;;5.80;1.00;;;;;;6232059;28;20234;-51
2022/12/21 06:13:25;;;;;;;49.10;29.33;;;5.60;1.00;;;;;;6233425;28;20246;-53
2022/12/21 06:16:28;;;;;;;50.67;28.23;;;5.70;1.00;;;;;;6232865;28;20242;-52
2022/12/21 06:19:31;;;;;;;44.17;28.90;;;6.00;1.00;;;;;;6247240;28;20258;-53
2022/12/21 06:22:35;;;;;;;51.67;29.00;;;6.00;1.00;;;;;;6258371;28;20230;-53
2022/12/21 06:25:39;;;;;;;45.90;28.83;;;6.00;1.00;;;;;;6256738;28;20841;-53
2022/12/21 06:28:43;;;;;;;55.00;29.87;;;6.00;1.00;;;;;;6254512;28;20252;-52
2022/12/21 06:31:46;;;;;;;50.97;29.87;;;5.90;1.00;;;;;;6258121;28;20230;-53
2022/12/21 06:34:49;;;;;;;48.30;29.10;;;5.90;1.00;;;;;;6248450;28;20603;-53
2022/12/21 06:37:52;;;;;;;47.70;29.83;;;6.00;1.00;;;;;;6257602;28;20240;-52
2022/12/21 06:40:58;;;;;;;49.90;29.73;;;6.10;1.00;;;;;;6265841;28;20753;-53
2022/12/21 06:44:00;;;;;;;52.30;30.50;;;6.00;1.00;;;;;;6257038;28;20230;-53
2022/12/21 06:47:04;;;;;;;51.57;29.70;;;6.00;1.00;;;;;;6250777;28;20742;-52
2022/12/21 06:50:09;;;;;;;46.30;29.83;;;6.20;1.00;;;;;;6257040;28;20815;-53
2022/12/21 06:53:12;;;;;;;46.03;29.00;;;6.00;1.00;;;;;;6255025;28;20233;-52
2022/12/21 06:56:18;;;;;;;47.53;30.20;;;6.10;1.00;;;;;;6256665;28;20244;-52
2022/12/21 06:59:22;;;;;;;52.23;30.83;;;6.10;1.00;;;;;;6245789;28;20243;-53
2022/12/21 07:02:26;;;;;;;45.20;29.33;;;6.10;1.00;;;;;;6236841;28;20239;-52
2022/12/21 07:05:29;;;;;;;52.03;30.63;;;6.30;1.00;;;;;;6236656;28;20261;-52
2022/12/21 07:08:33;;;;;;;43.10;28.10;;;6.00;1.00;;;;;;6232502;28;20686;-52
2022/12/21 07:11:37;;;;;;;45.70;28.83;;;6.10;1.00;;;;;;6233205;28;20739;-53
2022/12/21 07:14:40;;;;;;;47.57;30.20;;;6.10;1.00;;;;;;6229346;28;20238;-52
2022/12/21 07:17:43;;;;;;;42.93;29.80;;;6.10;1.00;;;;;;6233232;28;20241;-51
2022/12/21 07:20:46;;;;;;;46.53;28.90;;;6.10;1.00;;;;;;6231918;28;20739;-51
2022/12/21 07:23:49;;;;;;;50.60;31.30;;;6.30;1.00;;;;;;6232127;28;20234;-52
2022/12/21 07:26:54;;;;;;;51.93;30.40;;;6.20;1.00;;;;;;6240459;28;20226;-52
2022/12/21 07:29:57;;;;;;;56.17;31.70;;;6.20;1.00;;;;;;6230827;28;20621;-53
2022/12/21 07:33:00;;;;;;;54.77;31.03;;;6.30;1.00;;;;;;6237765;28;20246;-53
2022/12/21 07:36:05;;;;;;;50.27;30.30;;;6.20;1.00;;;;;;6233721;28;20245;-52
2022/12/21 07:39:09;;;;;;;57.47;32.93;;;6.30;1.00;;;;;;6238585;28;20246;-52
2022/12/21 07:42:13;;;;;;;46.43;27.97;;;6.30;1.00;;;;;;6230470;28;20235;-52
2022/12/21 07:45:17;;;;;;;49.70;30.87;;;6.30;1.00;;;;;;6232586;28;21127;-52
2022/12/21 07:48:20;;;;;;;55.27;31.60;;;6.40;1.00;;;;;;6235960;28;20823;-53
2022/12/21 07:51:32;;;;;;;47.83;30.10;;;6.30;1.00;;;;;;6230067;28;20235;-52
2022/12/21 07:54:35;;;;;;;48.00;29.70;;;6.30;1.00;;;;;;6232141;28;20249;-53
2022/12/21 07:57:39;;;;;;;45.33;30.20;;;6.30;1.00;;;;;;6231890;28;20784;-52
2022/12/21 08:00:42;;;;;;;45.13;30.00;;;6.40;1.00;;;;;;6233276;28;20227;-52
2022/12/21 08:03:46;;;;;;;50.07;31.03;;;6.30;1.00;;;;;;6229442;28;20318;-52
2022/12/21 08:06:50;;;;;;;49.07;29.63;;;6.40;1.00;;;;;;6230102;28;20234;-53
2022/12/21 08:09:53;;;;;;;42.33;27.57;;;6.70;1.00;;;;;;6231740;28;20647;-54
2022/12/21 08:12:58;;;;;;;50.63;31.03;;;6.40;1.00;;;;;;6227893;28;20305;-53
2022/12/21 08:16:01;;;;;;;48.53;29.63;;;6.30;1.00;;;;;;6233933;28;20305;-52
2022/12/21 08:19:04;;;;;;;48.33;31.47;;;6.40;1.00;;;;;;6234007;28;20327;-53
2022/12/21 08:22:09;;;;;;;49.40;30.67;;;6.40;1.00;;;;;;6231757;28;20388;-51
2022/12/21 08:25:12;;;;;;;46.33;31.20;;;6.60;1.00;;;;;;6231739;28;20747;-54
2022/12/21 08:28:17;;;;;;;42.60;28.73;;;6.40;1.00;;;;;;6225173;28;20246;-52
2022/12/21 08:31:21;;;;;;;45.43;32.10;;;6.50;1.00;;;;;;6235968;28;20263;-54
2022/12/21 08:34:24;;;;;;;48.70;32.53;;;6.60;1.00;;;;;;6228896;28;20246;-52
2022/12/21 08:37:27;;;;;;;51.70;32.80;;;6.60;1.00;;;;;;6234672;28;20288;-54
2022/12/21 08:40:31;;;;;;;48.97;32.77;;;6.50;1.00;;;;;;6231063;28;20257;-53
2022/12/21 08:43:37;;;;;;;48.87;31.37;;;6.50;1.00;;;;;;6229464;28;20592;-52
2022/12/21 08:46:41;;;;;;;55.00;32.03;;;6.40;1.00;;;;;;6221294;28;20245;-52
2022/12/21 08:49:45;;;;;;;52.57;32.40;;;6.50;1.00;;;;;;6227335;28;20245;-53
2022/12/21 08:52:48;;;;;;;49.73;31.33;;;6.60;1.00;;;;;;6229832;28;20312;-51
2022/12/21 08:55:51;;;;;;;49.40;31.23;;;6.60;1.00;;;;;;6228163;28;20227;-52
2022/12/21 08:58:55;;;;;;;53.00;32.27;;;6.40;1.00;;;;;;6232209;28;21062;-54
2022/12/21 09:01:58;;;;;;;50.97;32.50;;;6.40;1.00;;;;;;6241940;28;20311;-52
2022/12/21 09:05:02;;;;;;;46.23;30.53;;;6.60;1.00;;;;;;6235990;28;20342;-52
2022/12/21 09:08:05;;;;;;;50.73;30.80;;;6.70;1.00;;;;;;6231916;28;20246;-52
2022/12/21 09:11:11;;;;;;;51.93;31.47;;;6.60;1.00;;;;;;6231924;28;20234;-52
2022/12/21 09:14:15;;;;;;;46.97;30.33;;;6.60;1.00;;;;;;6238083;28;20262;-52
2022/12/21 09:17:18;;;;;;;48.23;32.00;;;6.70;1.00;;;;;;6243275;28;20230;-52
2022/12/21 09:20:29;;;;;;;49.90;29.23;;;6.80;1.00;;;;;;6224464;28;20318;-53
2022/12/21 09:23:32;;;;;;;48.67;30.40;;;6.80;1.00;;;;;;6230222;28;20242;-52
2022/12/21 09:26:35;;;;;;;43.13;29.33;;;6.90;1.00;;;;;;6231993;28;20341;-51
2022/12/21 09:29:39;;;;;;;43.87;28.27;;;6.90;1.00;;;;;;6230466;28;20237;-52
2022/12/21 09:32:42;;;;;;;40.93;27.43;;;6.90;1.00;;;;;;6232501;28;20318;-51
2022/12/21 09:35:45;;;;;;;42.83;29.47;;;7.00;1.00;;;;;;6235169;28;20235;-48
2022/12/21 09:38:48;;;;;;;41.73;28.50;;;7.10;1.00;;;;;;6221953;28;20239;-52
2022/12/21 09:42:04;;;;;;;44.83;29.07;;;7.10;1.00;;;;;;6226685;28;20535;-53
2022/12/21 09:45:13;;;;;;;40.30;27.40;;;7.10;1.00;;;;;;6231357;28;20246;-51
2022/12/21 09:48:20;;;;;;;37.03;26.80;;;7.10;1.00;;;;;;6225191;28;20247;-52
2022/12/21 09:51:33;;;;;;;39.77;26.47;;;7.20;1.00;;;;;;6230941;28;20380;-54
2022/12/21 09:54:40;;;;;;;41.20;26.93;;;7.20;1.00;;;;;;6228401;28;20238;-52
2022/12/21 09:57:44;;;;;;;36.30;26.17;;;7.10;1.00;;;;;;6233713;28;20235;-52
2022/12/21 10:00:53;;;;;;;43.33;29.83;;;7.20;1.00;;;;;;6232461;28;20238;-51
2022/12/21 10:04:14;;;;;;;35.83;25.50;;;7.20;1.00;;;;;;6233352;28;20265;-51
2022/12/21 10:07:59;;;;;;;37.53;27.67;;;7.20;1.00;;;;;;6258256;28;20241;-54
2022/12/21 10:11:10;;;;;;;35.33;24.70;;;7.20;1.00;;;;;;6258260;28;20936;-52
2022/12/21 10:14:29;;;;;;;35.47;25.33;;;7.30;1.00;;;;;;6258301;28;20226;-52
2022/12/21 10:17:49;;;;;;;38.30;27.50;;;7.30;1.00;;;;;;6263800;28;20325;-53
2022/12/21 10:20:56;;;;;;;36.50;25.47;;;7.30;1.00;;;;;;6245937;28;20481;-52
2022/12/21 10:24:02;;;;;;;38.87;26.83;;;7.30;1.00;;;;;;6256190;28;20341;-53
2022/12/21 10:27:13;;;;;;;34.70;25.47;;;7.30;1.00;;;;;;6254182;28;20244;-52
2022/12/21 10:30:17;;;;;;;29.47;24.77;;;7.30;1.00;;;;;;6250763;28;20894;-53
2022/12/21 10:33:23;;;;;;;36.03;25.60;;;7.40;1.00;;;;;;6258893;28;20256;-52
2022/12/21 10:36:35;;;;;;;35.63;25.53;;;7.40;1.00;;;;;;6257792;28;20283;-53
2022/12/21 10:39:38;;;;;;;35.07;25.53;;;7.40;1.00;;;;;;6258265;28;20524;-52
2022/12/21 10:42:44;;;;;;;38.33;27.23;;;7.40;1.00;;;;;;6267365;28;20261;-52
2022/12/21 10:45:49;;;;;;;38.40;27.50;;;7.50;1.00;;;;;;6261850;28;20230;-51
2022/12/21 10:49:00;;;;;;;38.93;27.37;;;7.40;1.00;;;;;;6259549;28;20910;-52
2022/12/21 10:52:32;;;;;;;38.13;27.40;;;7.40;1.00;;;;;;6261217;28;20238;-52
2022/12/21 10:55:37;;;;;;;39.57;26.43;;;7.50;1.00;;;;;;6241111;28;20235;-53
2022/12/21 10:58:52;;;;;;;39.47;26.90;;;7.50;1.00;;;;;;6234042;28;20231;-52
2022/12/21 11:01:55;;;;;;;41.10;28.33;;;7.50;1.00;;;;;;6231399;28;20247;-52
2022/12/21 11:04:59;;;;;;;34.67;26.47;;;7.50;1.00;;;;;;6231809;28;20242;-51
2022/12/21 11:08:19;;;;;;;37.87;28.07;;;7.50;1.00;;;;;;6232955;28;20732;-52
2022/12/21 11:11:28;;;;;;;38.50;28.63;;;7.50;1.00;;;;;;6230871;28;20238;-52
2022/12/21 11:14:38;;;;;;;38.63;28.17;;;7.50;1.00;;;;;;6235555;28;20830;-52
2022/12/21 11:17:45;;;;;;;39.53;28.70;;;7.50;1.00;;;;;;6233917;28;20231;-53
2022/12/21 11:20:50;;;;;;;40.13;27.90;;;7.60;1.00;;;;;;6236822;28;20608;-52
2022/12/21 11:23:58;;;;;;;41.10;29.47;;;7.60;1.00;;;;;;6230213;28;20234;-52
2022/12/21 11:27:04;;;;;;;41.10;28.77;;;7.50;1.00;;;;;;6234078;28;20231;-52
2022/12/21 11:30:09;;;;;;;41.87;28.97;;;7.60;1.00;;;;;;6229876;28;20653;-52
2022/12/21 11:33:18;;;;;;;32.57;25.90;;;7.60;1.00;;;;;;6232013;28;20632;-52
2022/12/21 11:36:22;;;;;;;34.30;26.90;;;7.80;1.00;;;;;;6230288;28;20250;-52
2022/12/21 11:39:25;;;;;;;34.13;26.60;;;7.70;1.00;;;;;;6229572;28;20251;-54
2022/12/21 11:42:29;;;;;;;33.07;26.23;;;7.70;1.00;;;;;;6236496;28;20250;-53
2022/12/21 11:45:45;;;;;;;38.47;26.83;;;7.80;1.00;;;;;;6245225;28;20398;-53
2022/12/21 11:48:58;;;;;;;33.53;25.47;;;7.80;1.00;;;;;;6224278;28;20235;-53
2022/12/21 11:52:13;;;;;;;35.40;27.03;;;7.80;1.00;;;;;;6238524;28;20730;-52
2022/12/21 11:55:24;;;;;;;33.83;27.20;;;7.80;1.00;;;;;;6222275;28;20238;-52
2022/12/21 11:58:47;;;;;;;35.43;27.63;;;7.80;1.00;;;;;;6232921;28;20254;-54
2022/12/21 12:02:00;;;;;;;33.77;26.50;;;7.90;1.00;;;;;;6231106;28;20426;-52
2022/12/21 12:05:20;;;;;;;36.17;27.47;;;7.90;1.00;;;;;;6222949;28;20230;-53
2022/12/21 12:08:36;;;;;;;36.20;26.73;;;8.00;1.00;;;;;;6242353;28;20256;-54
2022/12/21 12:11:49;;;;;;;33.30;25.13;;;8.00;1.00;;;;;;6225522;28;20235;-53
2022/12/21 12:15:06;;;;;;;31.83;24.83;;;8.00;1.00;;;;;;6231823;28;20245;-53
2022/12/21 12:18:22;;;;;;;36.07;26.33;;;8.00;1.00;;;;;;6237132;28;20238;-52
2022/12/21 12:21:55;;;;;;;30.87;25.13;;;7.90;1.00;;;;;;6226851;28;20329;-53
2022/12/21 12:25:26;;;;;;;33.73;25.87;;;8.00;1.00;;;;;;6225739;28;20231;-52
2022/12/21 12:28:50;;;;;;;32.53;26.67;;;8.00;1.00;;;;;;6239108;28;20778;-53
2022/12/21 12:32:09;;;;;;;38.33;26.87;;;8.00;1.00;;;;;;6259531;28;20233;-53
2022/12/21 12:35:38;;;;;;;30.87;24.67;;;8.00;1.00;;;;;;6258976;28;20321;-52
2022/12/21 12:38:54;;;;;;;36.57;26.50;;;8.00;1.00;;;;;;6223635;28;20232;-54
2022/12/21 12:42:07;;;;;;;33.60;26.57;;;8.00;1.00;;;;;;6227914;28;20489;-53
2022/12/21 12:45:19;;;;;;;38.83;26.30;;;8.00;1.00;;;;;;6230639;28;20605;-53
2022/12/21 12:48:30;;;;;;;35.20;26.60;;;8.00;1.00;;;;;;6227294;28;20258;-52
2022/12/21 12:51:40;;;;;;;35.13;25.23;;;8.00;1.00;;;;;;6229056;28;20261;-53
2022/12/21 12:54:50;;;;;;;32.70;25.73;;;8.00;1.00;;;;;;6253495;28;20226;-52
2022/12/21 12:58:03;;;;;;;34.90;26.23;;;8.00;1.00;;;;;;6255459;28;20664;-53
2022/12/21 13:01:12;;;;;;;32.77;25.87;;;8.10;1.00;;;;;;6256463;28;20234;-53
2022/12/21 13:04:34;;;;;;;38.77;28.53;;;8.00;1.00;;;;;;6255949;28;20546;-54
2022/12/21 13:07:46;;;;;;;40.80;28.77;;;8.00;1.00;;;;;;6250193;28;20641;-53
2022/12/21 13:11:04;;;;;;;34.43;26.60;;;8.00;1.00;;;;;;6255422;28;20703;-52
2022/12/21 13:14:17;;;;;;;31.30;25.17;;;8.00;1.00;;;;;;6249584;28;20388;-53
2022/12/21 13:17:29;;;;;;;32.60;25.10;;;8.00;1.00;;;;;;6226805;28;20606;-53
2022/12/21 13:20:35;;;;;;;34.63;25.00;;;8.00;1.00;;;;;;6231128;28;20250;-53
2022/12/21 13:23:44;;;;;;;31.33;24.73;;;8.00;1.00;;;;;;6230780;28;20242;-52
2022/12/21 13:26:49;;;;;;;35.60;25.77;;;8.00;1.00;;;;;;6231990;28;20245;-54
2022/12/21 13:30:02;;;;;;;35.23;25.03;;;8.00;1.00;;;;;;6235851;28;20424;-53
2022/12/21 13:33:05;;;;;;;29.53;24.00;;;8.10;1.00;;;;;;6264385;28;20249;-52
2022/12/21 13:36:11;;;;;;;31.97;25.33;;;8.10;1.00;;;;;;6265774;28;20563;-52
2022/12/21 13:39:20;;;;;;;33.40;25.57;;;8.10;1.00;;;;;;6239820;28;20246;-53
2022/12/21 13:42:30;;;;;;;33.93;24.40;;;8.10;1.00;;;;;;6234973;28;20239;-53
2022/12/21 13:45:41;;;;;;;30.50;23.90;;;8.00;1.00;;;;;;6235680;28;20484;-53
2022/12/21 13:48:47;;;;;;;30.87;24.13;;;8.00;1.00;;;;;;6235102;28;20262;-53
2022/12/21 13:51:53;;;;;;;34.50;24.97;;;8.00;1.00;;;;;;6244360;28;20405;-53
2022/12/21 13:55:04;;;;;;;30.37;24.40;;;8.00;1.00;;;;;;6239224;28;20245;-53
2022/12/21 13:58:18;;;;;;;34.60;24.70;;;8.20;1.00;;;;;;6239654;28;20638;-53
2022/12/21 14:01:37;;;;;;;28.33;22.73;;;7.90;1.00;;;;;;6237863;28;20243;-51
2022/12/21 14:04:46;;;;;;;31.70;23.57;;;7.90;1.00;;;;;;6236226;28;20464;-53
2022/12/21 14:08:17;;;;;;;32.53;23.53;;;7.90;1.00;;;;;;6236338;28;20250;-52
2022/12/21 14:11:43;;;;;;;27.73;21.37;;;8.00;1.00;;;;;;6231674;28;20238;-52
2022/12/21 14:15:34;;;;;;;28.90;22.53;;;7.90;1.00;;;;;;6233158;28;20242;-54
2022/12/21 14:18:40;;;;;;;28.93;21.73;;;7.90;1.00;;;;;;6228364;28;20249;-54
2022/12/21 14:21:46;;;;;;;28.73;23.70;;;7.90;1.00;;;;;;6233125;28;20234;-53
2022/12/21 14:24:59;;;;;;;28.27;22.53;;;7.90;1.00;;;;;;6232064;28;20253;-52
2022/12/21 14:28:18;;;;;;;25.67;22.13;;;8.00;1.00;;;;;;6234481;28;20750;-53
2022/12/21 14:31:21;;;;;;;31.57;23.93;;;7.80;1.00;;;;;;6267729;28;20632;-53
2022/12/21 14:34:30;;;;;;;28.67;23.77;;;7.90;1.00;;;;;;6258872;28;20241;-52
2022/12/21 14:38:25;;;;;;;32.00;22.70;;;7.90;1.00;;;;;;6265742;28;20239;-53
2022/12/21 14:41:31;;;;;;;33.43;24.73;;;7.80;1.00;;;;;;6236652;28;20240;-53
2022/12/21 14:45:55;;;;;;;27.00;22.80;;;7.80;1.00;;;;;;6240631;28;20594;-53
2022/12/21 14:49:10;;;;;;;25.90;22.70;;;7.80;1.00;;;;;;6200452;28;20243;-53
2022/12/21 14:52:29;;;;;;;28.60;21.03;;;7.80;1.00;;;;;;6206879;28;20308;-51
2022/12/21 14:55:35;;;;;;;32.63;22.73;;;7.90;1.00;;;;;;6247591;28;20246;-52
2022/12/21 14:58:40;;;;;;;30.43;23.90;;;7.80;1.00;;;;;;6233911;28;20247;-53
2022/12/21 15:01:56;;;;;;;32.03;23.90;;;7.80;1.00;;;;;;6233766;28;20239;-56
2022/12/21 15:05:03;;;;;;;25.60;20.57;;;7.80;1.00;;;;;;6229971;28;20238;-52
2022/12/21 15:08:17;;;;;;;21.80;19.33;;;7.90;1.00;;;;;;6254619;28;20245;-50
2022/12/21 15:11:24;;;;;;;24.27;20.13;;;7.80;1.00;;;;;;6261170;28;20237;-53
2022/12/21 15:14:33;;;;;;;33.27;22.83;;;7.80;1.00;;;;;;6260141;28;20621;-54
2022/12/21 15:17:36;;;;;;;27.63;22.30;;;7.80;1.00;;;;;;6239564;28;20452;-52
2022/12/21 15:21:30;;;;;;;24.60;21.40;;;7.80;1.00;;;;;;6264829;28;20370;-53
2022/12/21 15:24:35;;;;;;;26.17;21.93;;;7.80;1.00;;;;;;6259788;28;20235;-52
2022/12/21 15:27:43;;;;;;;28.57;22.23;;;7.80;1.00;;;;;;6276156;28;20383;-53
2022/12/21 15:30:51;;;;;;;25.20;21.27;;;7.70;1.00;;;;;;6264275;28;20249;-53
2022/12/21 15:33:55;;;;;;;26.73;21.00;;;7.80;1.00;;;;;;6275074;28;20615;-53
2022/12/21 15:37:01;;;;;;;25.47;20.47;;;7.80;1.00;;;;;;6271196;28;20259;-53
2022/12/21 15:40:08;;;;;;;27.00;19.13;;;7.70;1.00;;;;;;6261412;28;20333;-52
2022/12/21 15:43:17;;;;;;;24.90;20.37;;;7.70;1.00;;;;;;6265858;28;20622;-60
2022/12/21 15:46:34;;;;;;;23.23;18.47;;;7.70;1.00;;;;;;6252716;28;20309;-52
2022/12/21 15:49:44;;;;;;;22.40;19.03;;;7.70;1.00;;;;;;6272227;28;20244;-53
2022/12/21 15:52:54;;;;;;;25.97;19.97;;;7.70;1.00;;;;;;6268413;28;20793;-53
2022/12/21 15:56:00;;;;;;;26.77;21.63;;;7.70;1.00;;;;;;6261761;28;20230;-52
2022/12/21 15:59:03;;;;;;;25.83;21.57;;;7.70;1.00;;;;;;6242884;28;20330;-52
2022/12/21 16:02:19;;;;;;;25.43;21.57;;;7.70;1.00;;;;;;6232146;28;20242;-52
2022/12/21 16:05:25;;;;;;;25.53;20.37;;;7.70;1.00;;;;;;6255712;28;20316;-52
2022/12/21 16:08:28;;;;;;;24.37;20.23;;;7.60;1.00;;;;;;6257124;28;20242;-53
2022/12/21 16:11:37;;;;;;;25.37;20.43;;;7.50;1.00;;;;;;6265854;28;20243;-53
2022/12/21 16:15:00;;;;;;;25.20;20.23;;;7.50;1.00;;;;;;6236639;28;20226;-52
2022/12/21 16:18:12;;;;;;;24.47;20.63;;;7.50;1.00;;;;;;6227071;28;20244;-55
2022/12/21 16:21:33;;;;;;;22.40;19.23;;;7.50;1.00;;;;;;6228219;28;20756;-54
2022/12/21 16:24:40;;;;;;;26.93;21.10;;;7.40;1.00;;;;;;6231433;28;20245;-53
2022/12/21 16:28:05;;;;;;;22.53;20.13;;;7.40;1.00;;;;;;6221455;28;20242;-56
2022/12/21 16:31:36;;;;;;;26.10;20.93;;;7.30;1.00;;;;;;6225377;28;20242;-55
2022/12/21 16:34:43;;;;;;;24.90;19.07;;;7.30;1.00;;;;;;6228533;28;20366;-53